KGEU

Glendale Municipal Airport

Glendale, Arizona, USA
METAR KGEU 191650Z 00000KT 10SM FEW180 35/19 A2991
Observed Flight Rules
Aug-19 @ 16:50 UTC (22 minutes ago) Visual Flight Rules
Visibility Clouds
10 miles
  • Few at 18,000' AGL
Temperatures Readings
Current 35°C / 95°F
Dewpoint 19°C / 66°F
Humidity 39%
Altimeter 29.91" Hg
Pressure 1013 hPa
Elevation 325
METAR KGEU 191650Z 00000KT 10SM FEW180 35/19 A2991
Observed Flight Rules
Aug-19 @ 16:50 UTC
(22 minutes ago)
VFR
Clouds
  • Few at 18,000' AGL
Temperature Dewpoint
35°C / 95°F 19°C / 66°F
Humidity Altimeter Pressure
39% 29.91" Hg 1013 hPa